Terminal Aerodrome Forecast
Issued by NWS Bismarck, ND

Home | Current Version | Previous Version | Graphics & Text | Print | Product List | Glossary On
Versions: 1 2 3 4 5 6 7 8 9 10 11 12 13
000
FTUS43 KBIS 132100 AAA
TAFISN
TAF AMD
KISN 132147Z 1322/1418 31015G23KT P6SM VCSH FEW040 BKN060
     FM140200 31009KT P6SM BKN050
     FM140500 31004KT P6SM FEW070=

USA.gov is the U.S. government's official web portal to all federal, state and local government web resources and services.